Aeroporto :







RITROVATECI SU...

 
LOGIN :

Iscrizione | Disclaimer

   EN    FR    IT 

 









Sommario :    VFR   VFR Marginale   IFR   IFR Intensivo   IFR Molto Intensivo
Visibilità : 
Base nubi : 
>= 8 km
>= 3000ft
5 / 8 km
1000 / 3000 ft
1500m / 5 km
500 / 1000 ft
800 / 1500m
200 / 500 ft
< 800m
< 200 ft
Simboli :   Temporali  Nebbia  Neve Forte  Precipitazioni Forti  Vento > 20 kt






- Altitudine del aeroporto : 603 ft
- Codice IATA : LEB


KLEB - Lebanon Municipal

ULTIMO METAR :
  • 012053Z 02006KT 10SM OVC060 10/M03 A2975 RMK AO2 SLP078 T01001033 56007

METARs OBSOLETI :
  • 011953Z 04009KT 10SM OVC055 10/M03 A2975 RMK AO2 SLP080 T01001033
  • 011853Z 34008KT 10SM OVC055 11/M04 A2975 RMK AO2 SLP079 T01061039

TAF KLEB
Valido dal 01 a 18 ore il 02 a 18 ore UTC


011727Z 0118/0218 01009G14KT P6SM SCT045 BKN070
FM020300 35002KT P6SM OVC025
FM021400 33011KT 4SM -RA OVC025



MetMap, La meteo Aeronautica in un colpo d'occhio ! - Copyright ORBIFLY Dicembre 2007 - Disclaimer

ORBIFLY MET'MAP TEAM :

Programmazione e sviluppo : Alexandra Zaïnal
Concezione : Baudouin d'Aumeries
Aiuto per la programmazione : Marc-Olivier Méhu
Supporto tecnico e logistico : Manuel Goepfert
Aiuto per la traduzione : Arnaldo La Scala

Contatto : metmap@orbifly.com




FONTI E CREDITI :

   NOAA